sensor_id;sensor_type;location;lat;lon;timestamp;temperature;humidity
67586;SHT31;55785;47.946;20.540;2023-11-19T00:01:46;-0.94;89.18
67586;SHT31;55785;47.946;20.540;2023-11-19T00:04:12;-0.92;89.17
67586;SHT31;55785;47.946;20.540;2023-11-19T00:06:37;-0.86;89.19
67586;SHT31;55785;47.946;20.540;2023-11-19T00:09:02;-0.82;88.95
67586;SHT31;55785;47.946;20.540;2023-11-19T00:11:28;-0.86;88.96
67586;SHT31;55785;47.946;20.540;2023-11-19T00:13:53;-0.87;88.79
67586;SHT31;55785;47.946;20.540;2023-11-19T00:16:19;-0.87;88.77
67586;SHT31;55785;47.946;20.540;2023-11-19T00:18:44;-0.84;88.71
67586;SHT31;55785;47.946;20.540;2023-11-19T00:21:09;-0.82;88.81
67586;SHT31;55785;47.946;20.540;2023-11-19T00:23:35;-0.79;88.89
67586;SHT31;55785;47.946;20.540;2023-11-19T00:26:00;-0.82;88.91
67586;SHT31;55785;47.946;20.540;2023-11-19T00:28:26;-0.80;88.93
67586;SHT31;55785;47.946;20.540;2023-11-19T00:30:51;-0.83;88.92
67586;SHT31;55785;47.946;20.540;2023-11-19T00:33:16;-0.90;89.04
67586;SHT31;55785;47.946;20.540;2023-11-19T00:35:42;-0.93;89.13
67586;SHT31;55785;47.946;20.540;2023-11-19T00:38:07;-0.89;89.25
67586;SHT31;55785;47.946;20.540;2023-11-19T00:40:32;-0.87;89.29
67586;SHT31;55785;47.946;20.540;2023-11-19T00:42:58;-0.77;89.30
67586;SHT31;55785;47.946;20.540;2023-11-19T00:45:23;-0.74;88.85
67586;SHT31;55785;47.946;20.540;2023-11-19T00:47:48;-0.80;88.82
67586;SHT31;55785;47.946;20.540;2023-11-19T00:50:14;-0.83;88.69
67586;SHT31;55785;47.946;20.540;2023-11-19T00:52:39;-0.83;88.63
67586;SHT31;55785;47.946;20.540;2023-11-19T00:55:05;-0.90;88.67
67586;SHT31;55785;47.946;20.540;2023-11-19T00:57:31;-0.92;88.81
67586;SHT31;55785;47.946;20.540;2023-11-19T00:59:56;-0.97;88.87
67586;SHT31;55785;47.946;20.540;2023-11-19T01:02:22;-1.10;88.83
67586;SHT31;55785;47.946;20.540;2023-11-19T01:04:47;-1.21;88.67
67586;SHT31;55785;47.946;20.540;2023-11-19T01:07:12;-1.24;88.89
67586;SHT31;55785;47.946;20.540;2023-11-19T01:09:38;-1.24;89.12
67586;SHT31;55785;47.946;20.540;2023-11-19T01:12:04;-1.28;89.23
67586;SHT31;55785;47.946;20.540;2023-11-19T01:14:30;-1.31;89.40
67586;SHT31;55785;47.946;20.540;2023-11-19T01:16:55;-1.24;89.64
67586;SHT31;55785;47.946;20.540;2023-11-19T01:19:22;-1.17;89.94
67586;SHT31;55785;47.946;20.540;2023-11-19T01:21:47;-1.10;89.90
67586;SHT31;55785;47.946;20.540;2023-11-19T01:24:13;-1.15;89.50
67586;SHT31;55785;47.946;20.540;2023-11-19T01:26:38;-1.24;89.32
67586;SHT31;55785;47.946;20.540;2023-11-19T01:29:04;-1.27;89.40
67586;SHT31;55785;47.946;20.540;2023-11-19T01:31:29;-1.28;89.73
67586;SHT31;55785;47.946;20.540;2023-11-19T01:33:54;-1.30;89.85
67586;SHT31;55785;47.946;20.540;2023-11-19T01:36:20;-1.30;89.83
67586;SHT31;55785;47.946;20.540;2023-11-19T01:38:45;-1.34;90.04
67586;SHT31;55785;47.946;20.540;2023-11-19T01:41:10;-1.25;90.12
67586;SHT31;55785;47.946;20.540;2023-11-19T01:43:37;-1.22;89.97
67586;SHT31;55785;47.946;20.540;2023-11-19T01:46:05;-1.21;89.96
67586;SHT31;55785;47.946;20.540;2023-11-19T01:48:34;-1.21;90.09
67586;SHT31;55785;47.946;20.540;2023-11-19T01:51:00;-1.18;89.95
67586;SHT31;55785;47.946;20.540;2023-11-19T01:53:26;-1.15;89.91
67586;SHT31;55785;47.946;20.540;2023-11-19T01:55:52;-1.08;89.93
67586;SHT31;55785;47.946;20.540;2023-11-19T01:58:18;-1.04;89.77
67586;SHT31;55785;47.946;20.540;2023-11-19T02:00:44;-1.00;89.70
67586;SHT31;55785;47.946;20.540;2023-11-19T02:03:10;-0.99;89.59
67586;SHT31;55785;47.946;20.540;2023-11-19T02:05:37;-0.99;89.44
67586;SHT31;55785;47.946;20.540;2023-11-19T02:08:03;-0.99;89.34
67586;SHT31;55785;47.946;20.540;2023-11-19T02:10:29;-1.00;89.39
67586;SHT31;55785;47.946;20.540;2023-11-19T02:12:54;-1.01;89.39
67586;SHT31;55785;47.946;20.540;2023-11-19T02:15:20;-1.05;89.60
67586;SHT31;55785;47.946;20.540;2023-11-19T02:17:45;-1.04;89.72
67586;SHT31;55785;47.946;20.540;2023-11-19T02:20:10;-1.01;89.63
67586;SHT31;55785;47.946;20.540;2023-11-19T02:22:36;-1.00;89.53
67586;SHT31;55785;47.946;20.540;2023-11-19T02:25:05;-0.99;89.56
67586;SHT31;55785;47.946;20.540;2023-11-19T02:30:03;-0.99;89.60
67586;SHT31;55785;47.946;20.540;2023-11-19T02:32:29;-0.99;89.55
67586;SHT31;55785;47.946;20.540;2023-11-19T02:34:54;-1.05;89.66
67586;SHT31;55785;47.946;20.540;2023-11-19T02:37:19;-1.08;89.95
67586;SHT31;55785;47.946;20.540;2023-11-19T02:39:45;-1.07;90.21
67586;SHT31;55785;47.946;20.540;2023-11-19T02:42:10;-1.00;90.08
67586;SHT31;55785;47.946;20.540;2023-11-19T02:44:35;-0.99;89.95
67586;SHT31;55785;47.946;20.540;2023-11-19T02:47:01;-0.97;89.81
67586;SHT31;55785;47.946;20.540;2023-11-19T02:49:26;-0.93;89.78
67586;SHT31;55785;47.946;20.540;2023-11-19T02:51:51;-0.92;89.76
67586;SHT31;55785;47.946;20.540;2023-11-19T02:54:17;-0.94;89.65
67586;SHT31;55785;47.946;20.540;2023-11-19T02:56:42;-0.96;89.63
67586;SHT31;55785;47.946;20.540;2023-11-19T02:59:08;-1.05;89.45
67586;SHT31;55785;47.946;20.540;2023-11-19T03:01:33;-1.08;89.26
67586;SHT31;55785;47.946;20.540;2023-11-19T03:03:59;-1.07;89.34
67586;SHT31;55785;47.946;20.540;2023-11-19T03:06:25;-1.08;89.33
67586;SHT31;55785;47.946;20.540;2023-11-19T03:08:50;-1.14;89.26
67586;SHT31;55785;47.946;20.540;2023-11-19T03:11:16;-1.20;89.27
67586;SHT31;55785;47.946;20.540;2023-11-19T03:13:41;-1.25;89.50
67586;SHT31;55785;47.946;20.540;2023-11-19T03:16:07;-1.18;89.81
67586;SHT31;55785;47.946;20.540;2023-11-19T03:18:32;-1.21;89.84
67586;SHT31;55785;47.946;20.540;2023-11-19T03:20:58;-1.21;89.89
67586;SHT31;55785;47.946;20.540;2023-11-19T03:23:23;-1.25;89.87
67586;SHT31;55785;47.946;20.540;2023-11-19T03:25:49;-1.30;89.84
67586;SHT31;55785;47.946;20.540;2023-11-19T03:28:14;-1.35;89.91
67586;SHT31;55785;47.946;20.540;2023-11-19T03:30:39;-1.35;90.22
67586;SHT31;55785;47.946;20.540;2023-11-19T03:33:05;-1.31;90.61
67586;SHT31;55785;47.946;20.540;2023-11-19T03:35:30;-1.31;90.69
67586;SHT31;55785;47.946;20.540;2023-11-19T03:37:56;-1.27;90.63
67586;SHT31;55785;47.946;20.540;2023-11-19T03:40:21;-1.31;90.55
67586;SHT31;55785;47.946;20.540;2023-11-19T03:42:47;-1.28;90.60
67586;SHT31;55785;47.946;20.540;2023-11-19T03:45:12;-1.27;90.78
67586;SHT31;55785;47.946;20.540;2023-11-19T03:47:38;-1.22;90.74
67586;SHT31;55785;47.946;20.540;2023-11-19T03:50:04;-1.24;90.62
67586;SHT31;55785;47.946;20.540;2023-11-19T03:52:29;-1.20;90.63
67586;SHT31;55785;47.946;20.540;2023-11-19T03:54:55;-1.15;90.53
67586;SHT31;55785;47.946;20.540;2023-11-19T03:57:21;-1.15;90.43
67586;SHT31;55785;47.946;20.540;2023-11-19T03:59:47;-1.17;90.20
67586;SHT31;55785;47.946;20.540;2023-11-19T04:02:13;-1.17;90.23
67586;SHT31;55785;47.946;20.540;2023-11-19T04:04:39;-1.17;90.27
67586;SHT31;55785;47.946;20.540;2023-11-19T04:07:05;-1.15;90.18
67586;SHT31;55785;47.946;20.540;2023-11-19T04:09:30;-1.22;90.08
67586;SHT31;55785;47.946;20.540;2023-11-19T04:11:56;-1.27;90.11
67586;SHT31;55785;47.946;20.540;2023-11-19T04:14:22;-1.25;90.13
67586;SHT31;55785;47.946;20.540;2023-11-19T04:16:47;-1.32;90.07
67586;SHT31;55785;47.946;20.540;2023-11-19T04:19:12;-1.35;90.06
67586;SHT31;55785;47.946;20.540;2023-11-19T04:21:41;-1.37;90.06
67586;SHT31;55785;47.946;20.540;2023-11-19T04:24:07;-1.32;90.07
67586;SHT31;55785;47.946;20.540;2023-11-19T04:26:32;-1.27;90.06
67586;SHT31;55785;47.946;20.540;2023-11-19T04:28:58;-1.25;89.94
67586;SHT31;55785;47.946;20.540;2023-11-19T04:31:23;-1.27;89.94
67586;SHT31;55785;47.946;20.540;2023-11-19T04:33:48;-1.34;90.07
67586;SHT31;55785;47.946;20.540;2023-11-19T04:36:18;-1.37;89.90
67586;SHT31;55785;47.946;20.540;2023-11-19T04:38:44;-1.40;90.04
67586;SHT31;55785;47.946;20.540;2023-11-19T04:41:09;-1.40;90.17
67586;SHT31;55785;47.946;20.540;2023-11-19T04:43:34;-1.37;90.29
67586;SHT31;55785;47.946;20.540;2023-11-19T04:46:00;-1.41;90.22
67586;SHT31;55785;47.946;20.540;2023-11-19T04:48:25;-1.45;90.26
67586;SHT31;55785;47.946;20.540;2023-11-19T04:50:50;-1.44;90.36
67586;SHT31;55785;47.946;20.540;2023-11-19T04:53:16;-1.41;90.36
67586;SHT31;55785;47.946;20.540;2023-11-19T04:55:41;-1.41;90.62
67586;SHT31;55785;47.946;20.540;2023-11-19T04:58:07;-1.35;90.69
67586;SHT31;55785;47.946;20.540;2023-11-19T05:00:32;-1.32;90.76
67586;SHT31;55785;47.946;20.540;2023-11-19T05:02:58;-1.25;90.73
67586;SHT31;55785;47.946;20.540;2023-11-19T05:05:23;-1.27;90.63
67586;SHT31;55785;47.946;20.540;2023-11-19T05:07:48;-1.22;90.65
67586;SHT31;55785;47.946;20.540;2023-11-19T05:10:14;-1.24;90.59
67586;SHT31;55785;47.946;20.540;2023-11-19T05:12:39;-1.17;90.59
67586;SHT31;55785;47.946;20.540;2023-11-19T05:15:05;-1.12;90.48
67586;SHT31;55785;47.946;20.540;2023-11-19T05:17:30;-1.05;90.39
67586;SHT31;55785;47.946;20.540;2023-11-19T05:19:56;-1.04;90.30
67586;SHT31;55785;47.946;20.540;2023-11-19T05:22:21;-1.01;90.18
67586;SHT31;55785;47.946;20.540;2023-11-19T05:24:46;-1.01;90.09
67586;SHT31;55785;47.946;20.540;2023-11-19T05:27:12;-1.05;90.13
67586;SHT31;55785;47.946;20.540;2023-11-19T05:29:37;-1.01;90.13
67586;SHT31;55785;47.946;20.540;2023-11-19T05:32:03;-1.10;90.12
67586;SHT31;55785;47.946;20.540;2023-11-19T05:34:28;-1.11;90.15
67586;SHT31;55785;47.946;20.540;2023-11-19T05:36:53;-1.14;90.26
67586;SHT31;55785;47.946;20.540;2023-11-19T05:39:19;-1.17;90.28
67586;SHT31;55785;47.946;20.540;2023-11-19T05:41:44;-1.14;90.46
67586;SHT31;55785;47.946;20.540;2023-11-19T05:44:10;-1.10;90.48
67586;SHT31;55785;47.946;20.540;2023-11-19T05:46:35;-1.10;90.36
67586;SHT31;55785;47.946;20.540;2023-11-19T05:49:00;-1.08;90.40
67586;SHT31;55785;47.946;20.540;2023-11-19T05:51:26;-1.04;90.43
67586;SHT31;55785;47.946;20.540;2023-11-19T05:53:51;-1.07;90.36
67586;SHT31;55785;47.946;20.540;2023-11-19T05:56:16;-1.01;90.38
67586;SHT31;55785;47.946;20.540;2023-11-19T05:58:42;-0.97;90.29
67586;SHT31;55785;47.946;20.540;2023-11-19T06:01:07;-0.93;90.21
67586;SHT31;55785;47.946;20.540;2023-11-19T06:03:33;-0.90;90.12
67586;SHT31;55785;47.946;20.540;2023-11-19T06:05:58;-0.92;90.10
67586;SHT31;55785;47.946;20.540;2023-11-19T06:08:23;-0.94;90.23
67586;SHT31;55785;47.946;20.540;2023-11-19T06:10:49;-0.97;90.47
67586;SHT31;55785;47.946;20.540;2023-11-19T06:13:14;-0.92;90.54
67586;SHT31;55785;47.946;20.540;2023-11-19T06:15:41;-0.92;90.58
67586;SHT31;55785;47.946;20.540;2023-11-19T06:18:06;-0.90;90.62
67586;SHT31;55785;47.946;20.540;2023-11-19T06:20:33;-0.89;90.49
67586;SHT31;55785;47.946;20.540;2023-11-19T06:22:58;-0.86;90.61
67586;SHT31;55785;47.946;20.540;2023-11-19T06:25:24;-0.74;90.53
67586;SHT31;55785;47.946;20.540;2023-11-19T06:27:50;-0.73;90.30
67586;SHT31;55785;47.946;20.540;2023-11-19T06:30:15;-0.70;90.26
67586;SHT31;55785;47.946;20.540;2023-11-19T06:32:41;-0.65;90.30
67586;SHT31;55785;47.946;20.540;2023-11-19T06:35:06;-0.63;90.22
67586;SHT31;55785;47.946;20.540;2023-11-19T06:37:32;-0.61;90.13
67586;SHT31;55785;47.946;20.540;2023-11-19T06:39:57;-0.61;90.21
67586;SHT31;55785;47.946;20.540;2023-11-19T06:42:23;-0.56;90.31
67586;SHT31;55785;47.946;20.540;2023-11-19T06:44:48;-0.55;90.34
67586;SHT31;55785;47.946;20.540;2023-11-19T06:47:13;-0.49;90.46
67586;SHT31;55785;47.946;20.540;2023-11-19T06:49:39;-0.43;90.33
67586;SHT31;55785;47.946;20.540;2023-11-19T06:52:04;-0.38;90.07
67586;SHT31;55785;47.946;20.540;2023-11-19T06:54:30;-0.36;89.81
67586;SHT31;55785;47.946;20.540;2023-11-19T06:56:55;-0.31;89.68
67586;SHT31;55785;47.946;20.540;2023-11-19T06:59:21;-0.29;89.55
67586;SHT31;55785;47.946;20.540;2023-11-19T07:01:46;-0.22;89.43
67586;SHT31;55785;47.946;20.540;2023-11-19T07:04:11;-0.18;89.35
67586;SHT31;55785;47.946;20.540;2023-11-19T07:06:37;-0.15;89.18
67586;SHT31;55785;47.946;20.540;2023-11-19T07:09:03;-0.07;89.12
67586;SHT31;55785;47.946;20.540;2023-11-19T07:11:28;-0.03;89.14
67586;SHT31;55785;47.946;20.540;2023-11-19T07:13:53;-0.03;89.38
67586;SHT31;55785;47.946;20.540;2023-11-19T07:16:19;0.03;89.56
67586;SHT31;55785;47.946;20.540;2023-11-19T07:18:44;0.05;89.74
67586;SHT31;55785;47.946;20.540;2023-11-19T07:21:09;0.09;90.03
67586;SHT31;55785;47.946;20.540;2023-11-19T07:23:35;0.10;90.15
67586;SHT31;55785;47.946;20.540;2023-11-19T07:26:00;0.16;90.50
67586;SHT31;55785;47.946;20.540;2023-11-19T07:28:25;0.21;90.65
67586;SHT31;55785;47.946;20.540;2023-11-19T07:30:51;0.26;90.66
67586;SHT31;55785;47.946;20.540;2023-11-19T07:33:16;0.30;90.72
67586;SHT31;55785;47.946;20.540;2023-11-19T07:35:42;0.38;90.71
67586;SHT31;55785;47.946;20.540;2023-11-19T07:38:07;0.41;90.55
67586;SHT31;55785;47.946;20.540;2023-11-19T07:40:33;0.45;90.43
67586;SHT31;55785;47.946;20.540;2023-11-19T07:42:58;0.50;90.13
67586;SHT31;55785;47.946;20.540;2023-11-19T07:45:23;0.51;90.04
67586;SHT31;55785;47.946;20.540;2023-11-19T07:47:49;0.53;90.10
67586;SHT31;55785;47.946;20.540;2023-11-19T07:50:14;0.58;90.21
67586;SHT31;55785;47.946;20.540;2023-11-19T07:52:39;0.62;89.94
67586;SHT31;55785;47.946;20.540;2023-11-19T07:55:05;0.65;89.80
67586;SHT31;55785;47.946;20.540;2023-11-19T07:57:30;0.69;89.73
67586;SHT31;55785;47.946;20.540;2023-11-19T07:59:59;0.78;89.93
67586;SHT31;55785;47.946;20.540;2023-11-19T08:02:25;0.88;89.88
67586;SHT31;55785;47.946;20.540;2023-11-19T08:04:50;0.88;89.60
67586;SHT31;55785;47.946;20.540;2023-11-19T08:07:15;0.91;89.41
67586;SHT31;55785;47.946;20.540;2023-11-19T08:09:41;0.97;89.25
67586;SHT31;55785;47.946;20.540;2023-11-19T08:12:06;0.91;87.48
67586;SHT31;55785;47.946;20.540;2023-11-19T08:14:31;0.99;88.24
67586;SHT31;55785;47.946;20.540;2023-11-19T08:16:57;0.97;87.62
67586;SHT31;55785;47.946;20.540;2023-11-19T08:19:22;1.03;87.32
67586;SHT31;55785;47.946;20.540;2023-11-19T08:21:47;1.12;87.63
67586;SHT31;55785;47.946;20.540;2023-11-19T08:24:13;1.24;87.66
67586;SHT31;55785;47.946;20.540;2023-11-19T08:26:38;1.40;87.97
67586;SHT31;55785;47.946;20.540;2023-11-19T08:29:04;1.48;87.96
67586;SHT31;55785;47.946;20.540;2023-11-19T08:31:29;1.53;87.39
67586;SHT31;55785;47.946;20.540;2023-11-19T08:33:54;1.67;87.85
67586;SHT31;55785;47.946;20.540;2023-11-19T08:36:20;1.74;87.84
67586;SHT31;55785;47.946;20.540;2023-11-19T08:38:45;1.85;87.78
67586;SHT31;55785;47.946;20.540;2023-11-19T08:41:10;1.92;87.71
67586;SHT31;55785;47.946;20.540;2023-11-19T08:43:36;2.01;87.01
67586;SHT31;55785;47.946;20.540;2023-11-19T08:46:01;2.02;86.62
67586;SHT31;55785;47.946;20.540;2023-11-19T08:48:26;2.09;86.43
67586;SHT31;55785;47.946;20.540;2023-11-19T08:50:52;2.19;86.37
67586;SHT31;55785;47.946;20.540;2023-11-19T08:53:17;2.30;86.16
67586;SHT31;55785;47.946;20.540;2023-11-19T08:55:42;2.32;84.68
67586;SHT31;55785;47.946;20.540;2023-11-19T08:58:08;2.29;83.98
67586;SHT31;55785;47.946;20.540;2023-11-19T09:00:33;2.30;84.15
67586;SHT31;55785;47.946;20.540;2023-11-19T09:02:58;2.30;84.30
67586;SHT31;55785;47.946;20.540;2023-11-19T09:05:24;2.37;84.00
67586;SHT31;55785;47.946;20.540;2023-11-19T09:07:49;2.34;84.26
67586;SHT31;55785;47.946;20.540;2023-11-19T09:10:15;2.36;84.15
67586;SHT31;55785;47.946;20.540;2023-11-19T09:12:40;2.30;83.92
67586;SHT31;55785;47.946;20.540;2023-11-19T09:15:05;2.29;84.13
67586;SHT31;55785;47.946;20.540;2023-11-19T09:17:31;2.28;83.92
67586;SHT31;55785;47.946;20.540;2023-11-19T09:19:56;2.33;84.04
67586;SHT31;55785;47.946;20.540;2023-11-19T09:22:22;2.34;83.94
67586;SHT31;55785;47.946;20.540;2023-11-19T09:24:47;2.40;83.85
67586;SHT31;55785;47.946;20.540;2023-11-19T09:27:12;2.44;83.75
67586;SHT31;55785;47.946;20.540;2023-11-19T09:29:38;2.49;83.48
67586;SHT31;55785;47.946;20.540;2023-11-19T09:32:03;2.51;82.84
67586;SHT31;55785;47.946;20.540;2023-11-19T09:34:29;2.49;82.99
67586;SHT31;55785;47.946;20.540;2023-11-19T09:36:54;2.58;83.17
67586;SHT31;55785;47.946;20.540;2023-11-19T09:39:19;2.61;82.90
67586;SHT31;55785;47.946;20.540;2023-11-19T09:41:45;2.71;83.55
67586;SHT31;55785;47.946;20.540;2023-11-19T09:44:11;2.71;82.78
67586;SHT31;55785;47.946;20.540;2023-11-19T09:46:36;2.67;81.97
67586;SHT31;55785;47.946;20.540;2023-11-19T09:49:02;2.74;82.59
67586;SHT31;55785;47.946;20.540;2023-11-19T09:51:28;2.76;83.05
67586;SHT31;55785;47.946;20.540;2023-11-19T09:53:53;2.77;82.81
67586;SHT31;55785;47.946;20.540;2023-11-19T09:56:19;2.73;81.99
67586;SHT31;55785;47.946;20.540;2023-11-19T09:58:45;2.77;82.75
67586;SHT31;55785;47.946;20.540;2023-11-19T10:01:10;2.78;82.78
67586;SHT31;55785;47.946;20.540;2023-11-19T10:03:36;2.78;82.52
67586;SHT31;55785;47.946;20.540;2023-11-19T10:06:02;2.77;82.44
67586;SHT31;55785;47.946;20.540;2023-11-19T10:08:27;2.78;82.36
67586;SHT31;55785;47.946;20.540;2023-11-19T10:10:53;2.70;82.57
67586;SHT31;55785;47.946;20.540;2023-11-19T10:13:18;2.65;82.62
67586;SHT31;55785;47.946;20.540;2023-11-19T10:15:44;2.68;82.28
67586;SHT31;55785;47.946;20.540;2023-11-19T10:18:09;2.74;82.55
67586;SHT31;55785;47.946;20.540;2023-11-19T10:20:36;2.81;82.87
67586;SHT31;55785;47.946;20.540;2023-11-19T10:23:01;2.73;81.65
67586;SHT31;55785;47.946;20.540;2023-11-19T10:25:28;2.80;81.97
67586;SHT31;55785;47.946;20.540;2023-11-19T10:27:54;2.78;82.34
67586;SHT31;55785;47.946;20.540;2023-11-19T10:30:24;2.78;81.47
67586;SHT31;55785;47.946;20.540;2023-11-19T10:33:12;2.81;81.87
67586;SHT31;55785;47.946;20.540;2023-11-19T10:35:51;2.88;81.86
67586;SHT31;55785;47.946;20.540;2023-11-19T10:38:17;2.99;81.78
67586;SHT31;55785;47.946;20.540;2023-11-19T10:40:42;3.05;81.86
67586;SHT31;55785;47.946;20.540;2023-11-19T10:43:08;3.05;81.75
67586;SHT31;55785;47.946;20.540;2023-11-19T10:45:37;2.99;81.68
67586;SHT31;55785;47.946;20.540;2023-11-19T10:48:04;2.98;82.02
67586;SHT31;55785;47.946;20.540;2023-11-19T10:50:29;3.05;82.34
67586;SHT31;55785;47.946;20.540;2023-11-19T10:52:56;3.13;82.09
67586;SHT31;55785;47.946;20.540;2023-11-19T10:55:26;3.18;80.95
67586;SHT31;55785;47.946;20.540;2023-11-19T10:57:52;3.18;80.98
67586;SHT31;55785;47.946;20.540;2023-11-19T11:00:19;3.15;81.46
67586;SHT31;55785;47.946;20.540;2023-11-19T11:02:50;3.05;81.17
67586;SHT31;55785;47.946;20.540;2023-11-19T11:05:19;3.04;81.87
67586;SHT31;55785;47.946;20.540;2023-11-19T11:07:46;3.05;82.36
67586;SHT31;55785;47.946;20.540;2023-11-19T11:10:12;2.98;80.78
67586;SHT31;55785;47.946;20.540;2023-11-19T11:12:40;2.87;81.19
67586;SHT31;55785;47.946;20.540;2023-11-19T11:15:07;2.97;81.94
67586;SHT31;55785;47.946;20.540;2023-11-19T11:17:33;2.98;81.50
67586;SHT31;55785;47.946;20.540;2023-11-19T11:20:02;3.11;80.45
67586;SHT31;55785;47.946;20.540;2023-11-19T11:22:28;3.12;81.13
67586;SHT31;55785;47.946;20.540;2023-11-19T11:28:07;2.92;81.04
67586;SHT31;55785;47.946;20.540;2023-11-19T11:33:32;3.01;80.39
67586;SHT31;55785;47.946;20.540;2023-11-19T11:36:13;3.05;80.42
67586;SHT31;55785;47.946;20.540;2023-11-19T11:38:41;2.99;80.96
67586;SHT31;55785;47.946;20.540;2023-11-19T11:43:50;3.01;80.77
67586;SHT31;55785;47.946;20.540;2023-11-19T11:49:06;3.07;81.14
67586;SHT31;55785;47.946;20.540;2023-11-19T11:57:04;2.81;81.99
67586;SHT31;55785;47.946;20.540;2023-11-19T11:59:51;2.88;82.16
67586;SHT31;55785;47.946;20.540;2023-11-19T12:02:19;2.94;82.03
67586;SHT31;55785;47.946;20.540;2023-11-19T12:04:50;2.81;81.45
67586;SHT31;55785;47.946;20.540;2023-11-19T12:07:18;2.83;81.99
67586;SHT31;55785;47.946;20.540;2023-11-19T12:09:50;2.78;82.33
67586;SHT31;55785;47.946;20.540;2023-11-19T12:12:21;2.74;82.66
67586;SHT31;55785;47.946;20.540;2023-11-19T12:15:12;2.77;82.96
67586;SHT31;55785;47.946;20.540;2023-11-19T12:17:43;2.64;82.08
67586;SHT31;55785;47.946;20.540;2023-11-19T12:20:08;2.62;82.35
67586;SHT31;55785;47.946;20.540;2023-11-19T12:22:41;2.64;82.47
67586;SHT31;55785;47.946;20.540;2023-11-19T12:25:08;2.54;83.17
67586;SHT31;55785;47.946;20.540;2023-11-19T12:27:34;2.56;83.71
67586;SHT31;55785;47.946;20.540;2023-11-19T12:30:03;2.51;84.62
67586;SHT31;55785;47.946;20.540;2023-11-19T12:32:37;2.50;84.57
67586;SHT31;55785;47.946;20.540;2023-11-19T12:35:03;2.60;84.78
67586;SHT31;55785;47.946;20.540;2023-11-19T12:37:28;2.64;84.62
67586;SHT31;55785;47.946;20.540;2023-11-19T12:39:54;2.68;84.67
67586;SHT31;55785;47.946;20.540;2023-11-19T12:42:19;2.73;84.88
67586;SHT31;55785;47.946;20.540;2023-11-19T12:44:55;2.70;84.65
67586;SHT31;55785;47.946;20.540;2023-11-19T12:47:20;2.73;85.39
67586;SHT31;55785;47.946;20.540;2023-11-19T12:49:57;2.64;84.81
67586;SHT31;55785;47.946;20.540;2023-11-19T12:52:23;2.68;85.39
67586;SHT31;55785;47.946;20.540;2023-11-19T12:54:48;2.68;85.29
67586;SHT31;55785;47.946;20.540;2023-11-19T12:57:14;2.65;85.31
67586;SHT31;55785;47.946;20.540;2023-11-19T12:59:39;2.54;85.29
67586;SHT31;55785;47.946;20.540;2023-11-19T13:02:05;2.44;85.29
67586;SHT31;55785;47.946;20.540;2023-11-19T13:04:31;2.50;85.58
67586;SHT31;55785;47.946;20.540;2023-11-19T13:06:57;2.40;85.46
67586;SHT31;55785;47.946;20.540;2023-11-19T13:09:27;2.41;86.39
67586;SHT31;55785;47.946;20.540;2023-11-19T13:11:53;2.40;86.43
67586;SHT31;55785;47.946;20.540;2023-11-19T13:14:19;2.41;86.40
67586;SHT31;55785;47.946;20.540;2023-11-19T13:16:45;2.43;86.55
67586;SHT31;55785;47.946;20.540;2023-11-19T13:19:10;2.39;86.70
67586;SHT31;55785;47.946;20.540;2023-11-19T13:21:36;2.41;86.68
67586;SHT31;55785;47.946;20.540;2023-11-19T13:24:01;2.43;86.88
67586;SHT31;55785;47.946;20.540;2023-11-19T13:26:27;2.49;86.87
67586;SHT31;55785;47.946;20.540;2023-11-19T13:28:52;2.43;87.08
67586;SHT31;55785;47.946;20.540;2023-11-19T13:31:17;2.46;87.20
67586;SHT31;55785;47.946;20.540;2023-11-19T13:33:46;2.47;87.25
67586;SHT31;55785;47.946;20.540;2023-11-19T13:36:12;2.41;87.13
67586;SHT31;55785;47.946;20.540;2023-11-19T13:38:37;2.30;87.39
67586;SHT31;55785;47.946;20.540;2023-11-19T13:41:03;2.32;87.50
67586;SHT31;55785;47.946;20.540;2023-11-19T13:43:29;2.33;87.96
67586;SHT31;55785;47.946;20.540;2023-11-19T13:45:55;2.39;87.98
67586;SHT31;55785;47.946;20.540;2023-11-19T13:48:20;2.44;88.07
67586;SHT31;55785;47.946;20.540;2023-11-19T13:50:46;2.46;88.16
67586;SHT31;55785;47.946;20.540;2023-11-19T13:53:11;2.46;88.30
67586;SHT31;55785;47.946;20.540;2023-11-19T13:55:36;2.47;88.29
67586;SHT31;55785;47.946;20.540;2023-11-19T13:58:02;2.51;88.39
67586;SHT31;55785;47.946;20.540;2023-11-19T14:00:27;2.54;88.41
67586;SHT31;55785;47.946;20.540;2023-11-19T14:02:53;2.57;88.56
67586;SHT31;55785;47.946;20.540;2023-11-19T14:05:18;2.58;88.65
67586;SHT31;55785;47.946;20.540;2023-11-19T14:07:44;2.58;88.56
67586;SHT31;55785;47.946;20.540;2023-11-19T14:10:10;2.58;88.80
67586;SHT31;55785;47.946;20.540;2023-11-19T14:12:36;2.56;88.87
67586;SHT31;55785;47.946;20.540;2023-11-19T14:15:02;2.57;88.72
67586;SHT31;55785;47.946;20.540;2023-11-19T14:17:27;2.56;88.41
67586;SHT31;55785;47.946;20.540;2023-11-19T14:19:53;2.58;88.41
67586;SHT31;55785;47.946;20.540;2023-11-19T14:22:18;2.58;88.44
67586;SHT31;55785;47.946;20.540;2023-11-19T14:24:44;2.58;88.32
67586;SHT31;55785;47.946;20.540;2023-11-19T14:27:10;2.60;88.15
67586;SHT31;55785;47.946;20.540;2023-11-19T14:29:36;2.60;88.16
67586;SHT31;55785;47.946;20.540;2023-11-19T14:32:01;2.56;88.14
67586;SHT31;55785;47.946;20.540;2023-11-19T14:34:26;2.54;88.36
67586;SHT31;55785;47.946;20.540;2023-11-19T14:36:52;2.58;88.58
67586;SHT31;55785;47.946;20.540;2023-11-19T14:39:17;2.56;88.67
67586;SHT31;55785;47.946;20.540;2023-11-19T14:41:43;2.60;88.81
67586;SHT31;55785;47.946;20.540;2023-11-19T14:44:08;2.60;88.77
67586;SHT31;55785;47.946;20.540;2023-11-19T14:46:34;2.61;88.70
67586;SHT31;55785;47.946;20.540;2023-11-19T14:48:59;2.58;88.90
67586;SHT31;55785;47.946;20.540;2023-11-19T14:51:24;2.56;89.20
67586;SHT31;55785;47.946;20.540;2023-11-19T14:53:50;2.51;89.32
67586;SHT31;55785;47.946;20.540;2023-11-19T14:56:15;2.51;89.47
67586;SHT31;55785;47.946;20.540;2023-11-19T14:58:40;2.53;89.47
67586;SHT31;55785;47.946;20.540;2023-11-19T15:01:06;2.49;89.83
67586;SHT31;55785;47.946;20.540;2023-11-19T15:03:31;2.50;89.93
67586;SHT31;55785;47.946;20.540;2023-11-19T15:05:57;2.49;90.00
67586;SHT31;55785;47.946;20.540;2023-11-19T15:08:22;2.49;90.11
67586;SHT31;55785;47.946;20.540;2023-11-19T15:10:47;2.47;90.03
67586;SHT31;55785;47.946;20.540;2023-11-19T15:13:13;2.47;90.06
67586;SHT31;55785;47.946;20.540;2023-11-19T15:15:39;2.53;89.96
67586;SHT31;55785;47.946;20.540;2023-11-19T15:18:04;2.54;90.01
67586;SHT31;55785;47.946;20.540;2023-11-19T15:20:30;2.56;89.97
67586;SHT31;55785;47.946;20.540;2023-11-19T15:22:56;2.56;90.07
67586;SHT31;55785;47.946;20.540;2023-11-19T15:25:21;2.54;90.30
67586;SHT31;55785;47.946;20.540;2023-11-19T15:27:47;2.56;90.33
67586;SHT31;55785;47.946;20.540;2023-11-19T15:30:12;2.61;90.25
67586;SHT31;55785;47.946;20.540;2023-11-19T15:32:37;2.62;90.24
67586;SHT31;55785;47.946;20.540;2023-11-19T15:35:03;2.65;90.28
67586;SHT31;55785;47.946;20.540;2023-11-19T15:37:28;2.60;90.47